createdAt,value
2017-12-23T00:00:58.354Z,4.40
2017-12-23T00:03:26.117Z,4.40
2017-12-23T00:05:54.045Z,4.40
2017-12-23T00:08:21.814Z,4.40
2017-12-23T00:10:49.851Z,4.40
2017-12-23T00:13:17.609Z,4.40
2017-12-23T00:15:45.423Z,4.40
2017-12-23T00:18:13.939Z,4.50
2017-12-23T00:20:41.719Z,4.40
2017-12-23T00:23:09.795Z,4.50
2017-12-23T00:25:37.586Z,4.50
2017-12-23T00:28:06.121Z,4.50
2017-12-23T00:30:33.879Z,4.50
2017-12-23T00:33:01.659Z,4.50
2017-12-23T00:35:29.734Z,4.50
2017-12-23T00:37:57.498Z,4.50
2017-12-23T00:40:25.275Z,4.60
2017-12-23T00:42:53.053Z,4.60
2017-12-23T00:45:20.826Z,4.60
2017-12-23T00:47:49.427Z,4.60
2017-12-23T00:50:17.983Z,4.60
2017-12-23T00:52:45.771Z,4.60
2017-12-23T00:55:14.319Z,4.60
2017-12-23T00:57:42.151Z,4.60
2017-12-23T01:00:09.974Z,4.60
2017-12-23T01:02:38.521Z,4.60
2017-12-23T01:05:07.066Z,4.60
2017-12-23T01:07:34.827Z,4.60
2017-12-23T01:10:02.575Z,4.60
2017-12-23T01:12:31.850Z,4.50
2017-12-23T01:14:59.590Z,4.50
2017-12-23T01:17:27.367Z,4.60
2017-12-23T01:19:55.109Z,4.60
2017-12-23T01:22:22.867Z,4.50
2017-12-23T01:24:50.611Z,4.60
2017-12-23T01:27:19.141Z,4.50
2017-12-23T01:29:46.936Z,4.50
2017-12-23T01:32:14.736Z,4.50
2017-12-23T01:34:42.486Z,4.50
2017-12-23T01:37:11.032Z,4.50
2017-12-23T01:39:40.075Z,4.50
2017-12-23T01:42:07.825Z,4.50
2017-12-23T01:44:36.342Z,4.60
2017-12-23T01:47:04.573Z,4.60
2017-12-23T01:49:33.008Z,4.60
2017-12-23T01:52:00.774Z,4.60
2017-12-23T01:54:28.566Z,4.60
2017-12-23T01:56:56.374Z,4.60
2017-12-23T01:59:24.199Z,4.60
2017-12-23T02:01:51.962Z,4.60
2017-12-23T02:04:19.718Z,4.60
2017-12-23T02:06:47.470Z,4.60
2017-12-23T02:09:15.230Z,4.60
2017-12-23T02:11:42.976Z,4.50
2017-12-23T02:14:10.746Z,4.50
2017-12-23T02:16:38.484Z,4.50
2017-12-23T02:19:06.984Z,4.40
2017-12-23T02:21:34.729Z,4.40
2017-12-23T02:24:03.900Z,4.40
2017-12-23T02:26:31.719Z,4.40
2017-12-23T02:28:59.530Z,4.40
2017-12-23T02:31:27.347Z,4.40
2017-12-23T02:33:55.122Z,4.40
2017-12-23T02:36:22.866Z,4.40
2017-12-23T02:38:51.500Z,4.40
2017-12-23T02:41:19.328Z,4.40
2017-12-23T02:43:48.062Z,4.30
2017-12-23T02:46:15.790Z,4.30
2017-12-23T02:48:44.264Z,4.30
2017-12-23T02:51:12.071Z,4.20
2017-12-23T02:53:39.879Z,4.30
2017-12-23T02:56:07.649Z,4.20
2017-12-23T02:58:35.384Z,4.20
2017-12-23T03:01:03.904Z,4.20
2017-12-23T03:03:31.870Z,4.10
2017-12-23T03:05:59.648Z,4.20
2017-12-23T03:08:27.430Z,4.20
2017-12-23T03:10:55.150Z,4.10
2017-12-23T03:13:22.886Z,4.10
2017-12-23T03:15:51.422Z,4.10
2017-12-23T03:18:19.229Z,4.10
2017-12-23T03:20:47.002Z,4.20
2017-12-23T03:23:14.758Z,4.10
2017-12-23T03:25:43.313Z,4.10
2017-12-23T03:28:11.070Z,4.10
2017-12-23T03:30:38.838Z,4.10
2017-12-23T03:33:06.586Z,4.10
2017-12-23T03:35:34.404Z,4.10
2017-12-23T03:38:02.258Z,4.10
2017-12-23T03:40:30.858Z,4.10
2017-12-23T03:42:58.616Z,4.10
2017-12-23T03:45:26.405Z,4.10
2017-12-23T03:47:54.360Z,4.20
2017-12-23T03:50:22.102Z,4.20
2017-12-23T03:52:50.612Z,4.20
2017-12-23T03:55:18.855Z,4.20
2017-12-23T03:57:47.395Z,4.20
2017-12-23T04:00:15.136Z,4.20
2017-12-23T04:02:42.874Z,4.20
2017-12-23T04:05:11.500Z,4.30
2017-12-23T04:07:39.224Z,4.30
2017-12-23T04:10:06.963Z,4.30
2017-12-23T04:12:35.698Z,4.30
2017-12-23T04:15:03.458Z,4.30
2017-12-23T04:17:31.189Z,4.30
2017-12-23T04:19:59.725Z,4.30
2017-12-23T04:22:27.456Z,4.30
2017-12-23T04:24:55.275Z,4.30
2017-12-23T04:27:23.038Z,4.30
2017-12-23T04:29:50.775Z,4.30
2017-12-23T04:32:18.511Z,4.40
2017-12-23T04:34:46.255Z,4.40
2017-12-23T04:37:14.863Z,4.40
2017-12-23T04:39:42.594Z,4.40
2017-12-23T04:42:11.140Z,4.40
2017-12-23T04:44:38.906Z,4.40
2017-12-23T04:47:06.695Z,4.40
2017-12-23T04:49:35.522Z,4.40
2017-12-23T04:52:03.290Z,4.30
2017-12-23T04:54:31.055Z,4.40
2017-12-23T04:56:58.835Z,4.40
2017-12-23T04:59:26.602Z,4.40
2017-12-23T05:01:54.375Z,4.40
2017-12-23T05:04:22.162Z,4.40
2017-12-23T05:06:50.678Z,4.40
2017-12-23T05:09:18.404Z,4.40
2017-12-23T05:11:46.144Z,4.40
2017-12-23T05:14:14.254Z,4.40
2017-12-23T05:16:42.808Z,4.40
2017-12-23T05:19:10.541Z,4.40
2017-12-23T05:21:38.313Z,4.40
2017-12-23T05:24:06.053Z,4.40
2017-12-23T05:26:33.828Z,4.40
2017-12-23T05:29:01.620Z,4.40
2017-12-23T05:31:30.144Z,4.40
2017-12-23T05:33:57.970Z,4.40
2017-12-23T05:36:25.713Z,4.40
2017-12-23T05:38:53.472Z,4.30
2017-12-23T05:41:21.218Z,4.30
2017-12-23T05:43:48.962Z,4.30
2017-12-23T05:46:17.484Z,4.20
2017-12-23T05:48:45.272Z,4.20
2017-12-23T05:51:13.323Z,4.20
2017-12-23T05:53:41.049Z,4.10
2017-12-23T05:56:08.797Z,4.10
2017-12-23T05:58:37.393Z,4.10
2017-12-23T06:01:05.180Z,4.10
2017-12-23T06:03:32.926Z,4.10
2017-12-23T06:06:00.665Z,4.10
2017-12-23T06:08:29.192Z,4.10
2017-12-23T06:10:57.039Z,4.10
2017-12-23T06:13:24.852Z,4.10
2017-12-23T06:15:52.602Z,4.10
2017-12-23T06:18:20.370Z,4.10
2017-12-23T06:20:48.366Z,4.10
2017-12-23T06:23:16.913Z,4.20
2017-12-23T06:25:44.685Z,4.10
2017-12-23T06:28:12.965Z,4.10
2017-12-23T06:30:40.770Z,4.10
2017-12-23T06:33:09.337Z,4.10
2017-12-23T06:35:37.097Z,4.10
2017-12-23T06:38:04.845Z,4.10
2017-12-23T06:40:32.643Z,4.00
2017-12-23T06:43:01.205Z,4.10
2017-12-23T06:45:29.007Z,4.00
2017-12-23T06:47:57.646Z,4.10
2017-12-23T06:50:25.415Z,4.10
2017-12-23T06:52:53.784Z,4.10
2017-12-23T06:55:21.565Z,4.10
2017-12-23T06:57:50.107Z,4.20
2017-12-23T07:00:18.423Z,4.20
2017-12-23T07:02:47.172Z,4.20
2017-12-23T07:05:14.982Z,4.20
2017-12-23T07:07:43.488Z,4.20
2017-12-23T07:10:11.319Z,4.20
2017-12-23T07:12:39.076Z,4.30
2017-12-23T07:15:06.901Z,4.30
2017-12-23T07:17:34.744Z,4.20
2017-12-23T07:20:02.575Z,4.20
2017-12-23T07:22:30.339Z,4.20
2017-12-23T07:24:58.673Z,4.20
2017-12-23T07:27:26.442Z,4.20
2017-12-23T07:29:56.112Z,4.20
2017-12-23T07:32:24.666Z,4.20
2017-12-23T07:34:52.440Z,4.20
2017-12-23T07:37:20.251Z,4.20
2017-12-23T07:39:48.014Z,4.20
2017-12-23T07:42:15.826Z,4.20
2017-12-23T07:44:43.606Z,4.20
2017-12-23T07:47:11.421Z,4.20
2017-12-23T07:49:39.190Z,4.30
2017-12-23T07:52:06.997Z,4.30
2017-12-23T07:54:34.747Z,4.40
2017-12-23T07:57:03.155Z,4.40
2017-12-23T07:59:31.751Z,4.40
2017-12-23T08:02:00.246Z,4.40
2017-12-23T08:04:28.478Z,4.40
2017-12-23T08:06:56.336Z,4.40
2017-12-23T08:09:24.073Z,4.50
2017-12-23T08:11:51.846Z,4.50
2017-12-23T08:14:20.044Z,4.50
2017-12-23T08:16:47.805Z,4.50
2017-12-23T08:19:15.581Z,4.60
2017-12-23T08:21:43.333Z,4.60
2017-12-23T08:24:11.107Z,4.70
2017-12-23T08:26:38.896Z,4.70
2017-12-23T08:29:06.682Z,4.80
2017-12-23T08:31:34.832Z,4.80
2017-12-23T08:34:03.372Z,4.80
2017-12-23T08:36:31.875Z,4.80
2017-12-23T08:39:00.569Z,4.90
2017-12-23T08:41:29.139Z,4.90
2017-12-23T08:43:56.901Z,4.90
2017-12-23T08:46:24.666Z,4.90
2017-12-23T08:48:52.451Z,4.90
2017-12-23T08:51:21.042Z,4.90
2017-12-23T08:53:49.579Z,4.90
2017-12-23T08:56:17.476Z,4.90
2017-12-23T08:58:45.982Z,5.00
2017-12-23T09:01:13.852Z,5.00
2017-12-23T09:03:41.628Z,5.00
2017-12-23T09:06:09.890Z,5.00
2017-12-23T09:08:37.711Z,5.00
2017-12-23T09:11:05.563Z,5.00
2017-12-23T09:13:33.315Z,5.10
2017-12-23T09:16:01.091Z,5.00
2017-12-23T09:18:28.898Z,5.10
2017-12-23T09:20:58.088Z,5.10
2017-12-23T09:23:26.679Z,5.10
2017-12-23T09:25:55.263Z,5.10
2017-12-23T09:28:23.837Z,5.30
2017-12-23T09:30:51.670Z,5.30
2017-12-23T09:33:19.532Z,5.40
2017-12-23T09:35:47.302Z,5.40
2017-12-23T09:38:15.784Z,5.50
2017-12-23T09:40:43.550Z,5.50
2017-12-23T09:43:11.322Z,5.60
2017-12-23T09:45:39.128Z,5.70
2017-12-23T09:48:06.907Z,5.70
2017-12-23T09:50:34.645Z,5.90
2017-12-23T09:53:03.194Z,5.90
2017-12-23T09:55:30.987Z,5.90
2017-12-23T09:57:59.504Z,6.00
2017-12-23T10:00:27.366Z,6.00
2017-12-23T10:02:56.056Z,6.10
2017-12-23T10:05:23.858Z,6.30
2017-12-23T10:07:53.114Z,6.70
2017-12-23T10:10:21.702Z,6.80
2017-12-23T10:12:53.415Z,6.90
2017-12-23T10:15:21.976Z,7.30
2017-12-23T10:17:58.876Z,7.30
2017-12-23T10:20:28.666Z,7.40
2017-12-23T10:22:56.438Z,7.20
2017-12-23T10:25:24.388Z,6.80
2017-12-23T10:27:52.409Z,6.70
2017-12-23T10:30:20.956Z,6.60
2017-12-23T10:32:48.798Z,6.50
2017-12-23T10:35:16.661Z,6.60
2017-12-23T10:37:44.511Z,6.60
2017-12-23T10:40:12.355Z,6.60
2017-12-23T10:42:41.713Z,6.50
2017-12-23T10:45:09.478Z,6.50
2017-12-23T10:47:37.237Z,6.50
2017-12-23T10:50:05.049Z,6.50
2017-12-23T10:52:33.586Z,6.60
2017-12-23T10:55:02.529Z,6.60
2017-12-23T10:57:31.579Z,6.70
2017-12-23T10:59:59.389Z,6.60
2017-12-23T11:02:27.252Z,6.70
2017-12-23T11:04:56.490Z,6.80
2017-12-23T11:07:24.422Z,6.80
2017-12-23T11:09:52.331Z,6.90
2017-12-23T11:12:20.649Z,7.30
2017-12-23T11:14:48.504Z,7.70
2017-12-23T11:17:16.448Z,7.80
2017-12-23T11:19:44.304Z,7.50
2017-12-23T11:22:12.134Z,7.60
2017-12-23T11:24:39.987Z,7.70
2017-12-23T11:27:09.271Z,7.80
2017-12-23T11:29:38.827Z,7.60
2017-12-23T11:32:07.030Z,7.60
2017-12-23T11:34:34.881Z,7.40
2017-12-23T11:37:02.699Z,7.50
2017-12-23T11:39:43.146Z,7.70
2017-12-23T11:42:11.968Z,7.80
2017-12-23T11:44:42.504Z,7.80
2017-12-23T11:47:10.874Z,7.90
2017-12-23T11:49:40.210Z,7.80
2017-12-23T11:52:09.983Z,8.00
2017-12-23T11:54:40.241Z,8.10
2017-12-23T11:57:09.498Z,7.90
2017-12-23T11:59:37.310Z,7.90
2017-12-23T12:02:08.617Z,7.80
2017-12-23T12:04:37.793Z,7.60
2017-12-23T12:07:10.915Z,7.50
2017-12-23T12:09:38.953Z,7.40
2017-12-23T12:12:08.724Z,7.40
2017-12-23T12:14:36.700Z,7.30
2017-12-23T12:17:05.180Z,7.30
2017-12-23T12:19:34.229Z,7.40
2017-12-23T12:22:02.037Z,7.40
2017-12-23T12:24:30.590Z,7.40
2017-12-23T12:27:00.658Z,7.50
2017-12-23T12:29:39.262Z,7.50
2017-12-23T12:32:08.028Z,7.60
2017-12-23T12:34:36.070Z,7.50
2017-12-23T12:37:08.276Z,7.40
2017-12-23T12:39:38.498Z,7.50
2017-12-23T12:42:07.511Z,7.60
2017-12-23T12:44:35.550Z,7.50
2017-12-23T12:47:23.925Z,7.60
2017-12-23T12:49:51.765Z,7.60
2017-12-23T12:55:24.545Z,7.80
2017-12-23T12:57:52.602Z,7.70
2017-12-23T13:00:22.037Z,7.70
2017-12-23T13:02:50.272Z,7.70
2017-12-23T13:05:19.246Z,7.50
2017-12-23T13:07:49.908Z,7.50
2017-12-23T13:10:17.869Z,7.50
2017-12-23T13:12:46.617Z,7.70
2017-12-23T13:15:14.991Z,7.70
2017-12-23T13:17:43.868Z,7.60
2017-12-23T13:20:11.712Z,7.50
2017-12-23T13:22:39.673Z,7.40
2017-12-23T13:25:11.562Z,7.40
2017-12-23T13:27:39.438Z,7.50
2017-12-23T13:30:07.246Z,7.60
2017-12-23T13:32:37.287Z,7.50
2017-12-23T13:35:05.282Z,7.50
2017-12-23T13:37:34.034Z,7.40
2017-12-23T13:40:01.927Z,7.40
2017-12-23T13:42:29.726Z,7.40
2017-12-23T13:44:58.785Z,7.40
2017-12-23T13:47:26.651Z,7.30
2017-12-23T13:49:54.611Z,7.30
2017-12-23T13:52:27.327Z,7.20
2017-12-23T13:54:55.165Z,7.20
2017-12-23T13:57:23.053Z,7.10
2017-12-23T13:59:51.996Z,7.00
2017-12-23T14:02:20.768Z,7.00
2017-12-23T14:04:49.327Z,6.90
2017-12-23T14:07:18.001Z,6.90
2017-12-23T14:09:47.356Z,6.80
2017-12-23T14:12:19.435Z,6.80
2017-12-23T14:14:48.299Z,6.80
2017-12-23T14:17:17.849Z,6.90
2017-12-23T14:19:47.298Z,7.00
2017-12-23T14:22:15.926Z,6.90
2017-12-23T14:24:44.217Z,6.90
2017-12-23T14:27:12.620Z,6.80
2017-12-23T14:29:40.432Z,6.70
2017-12-23T14:32:08.553Z,6.60
2017-12-23T14:34:36.384Z,6.60
2017-12-23T14:37:04.294Z,6.60
2017-12-23T14:39:35.083Z,6.60
2017-12-23T14:42:03.017Z,6.60
2017-12-23T14:44:35.715Z,6.60
2017-12-23T14:47:03.565Z,6.50
2017-12-23T14:49:34.456Z,6.50
2017-12-23T14:52:03.233Z,6.50
2017-12-23T14:54:31.750Z,6.60
2017-12-23T14:56:59.536Z,6.60
2017-12-23T14:59:28.128Z,6.50
2017-12-23T15:01:57.418Z,6.50
2017-12-23T15:04:25.965Z,6.50
2017-12-23T15:06:53.786Z,6.50
2017-12-23T15:09:21.633Z,6.50
2017-12-23T15:11:50.320Z,6.40
2017-12-23T15:14:20.615Z,6.40
2017-12-23T15:16:48.564Z,6.30
2017-12-23T15:19:17.361Z,6.30
2017-12-23T15:21:45.217Z,6.20
2017-12-23T15:24:13.044Z,6.20
2017-12-23T15:26:41.656Z,6.20
2017-12-23T15:29:09.550Z,6.20
2017-12-23T15:31:37.400Z,6.10
2017-12-23T15:34:05.292Z,6.10
2017-12-23T15:36:33.170Z,6.10
2017-12-23T15:39:03.218Z,6.00
2017-12-23T15:41:31.037Z,6.00
2017-12-23T15:43:58.940Z,6.00
2017-12-23T15:46:27.754Z,6.00
2017-12-23T15:48:56.964Z,5.90
2017-12-23T15:51:26.514Z,5.90
2017-12-23T15:53:56.154Z,6.00
2017-12-23T15:56:24.056Z,5.90
2017-12-23T15:58:51.959Z,5.90
2017-12-23T16:01:23.976Z,5.90
2017-12-23T16:03:51.800Z,5.90
2017-12-23T16:06:20.425Z,5.90
2017-12-23T16:08:48.274Z,5.90
2017-12-23T16:11:16.145Z,5.90
2017-12-23T16:13:45.514Z,5.80
2017-12-23T16:16:18.560Z,5.70
2017-12-23T16:18:46.418Z,5.70
2017-12-23T16:21:21.152Z,5.70
2017-12-23T16:23:49.027Z,5.70
2017-12-23T16:26:17.039Z,5.60
2017-12-23T16:28:44.884Z,5.60
2017-12-23T16:31:12.696Z,5.60
2017-12-23T16:33:40.484Z,5.60
2017-12-23T16:36:08.293Z,5.60
2017-12-23T16:38:38.383Z,5.70
2017-12-23T16:41:06.342Z,5.60
2017-12-23T16:43:34.430Z,5.70
2017-12-23T16:46:03.135Z,5.70
2017-12-23T16:48:32.711Z,5.60
2017-12-23T16:51:02.607Z,5.60
2017-12-23T16:53:30.424Z,5.60
2017-12-23T16:55:59.108Z,5.50
2017-12-23T16:58:28.705Z,5.50
2017-12-23T17:00:57.577Z,5.50
2017-12-23T17:03:26.485Z,5.40
2017-12-23T17:05:55.932Z,5.40
2017-12-23T17:08:23.885Z,5.40
2017-12-23T17:10:52.365Z,5.40
2017-12-23T17:13:20.321Z,5.40
2017-12-23T17:15:48.908Z,5.30
2017-12-23T17:18:17.479Z,5.30
2017-12-23T17:20:45.265Z,5.30
2017-12-23T17:23:13.084Z,5.30
2017-12-23T17:25:41.010Z,5.30
2017-12-23T17:28:16.906Z,5.40
2017-12-23T17:30:44.733Z,5.40
2017-12-23T17:33:12.620Z,5.40
2017-12-23T17:35:40.920Z,5.40
2017-12-23T17:38:08.904Z,5.30
2017-12-23T17:40:37.754Z,5.20
2017-12-23T17:43:05.712Z,5.20
2017-12-23T17:45:33.524Z,5.20
2017-12-23T17:48:01.340Z,5.10
2017-12-23T17:50:29.438Z,5.20
2017-12-23T17:52:57.805Z,5.20
2017-12-23T17:55:25.776Z,5.10
2017-12-23T17:57:53.820Z,5.20
2017-12-23T18:00:21.591Z,5.10
2017-12-23T18:02:49.461Z,5.10
2017-12-23T18:05:17.272Z,5.10
2017-12-23T18:07:45.113Z,5.00
2017-12-23T18:10:13.145Z,5.00
2017-12-23T18:12:41.238Z,4.90
2017-12-23T18:15:10.064Z,4.80
2017-12-23T18:17:37.890Z,4.70
2017-12-23T18:20:05.864Z,4.70
2017-12-23T18:22:37.903Z,4.70
2017-12-23T18:25:06.003Z,4.70
2017-12-23T18:27:33.898Z,4.80
2017-12-23T18:30:01.838Z,4.90
2017-12-23T18:32:29.716Z,4.90
2017-12-23T18:34:57.511Z,4.80
2017-12-23T18:37:26.319Z,4.70
2017-12-23T18:39:54.863Z,4.60
2017-12-23T18:42:22.681Z,4.60
2017-12-23T18:44:50.547Z,4.60
2017-12-23T18:47:18.418Z,4.50
2017-12-23T18:49:46.218Z,4.50
2017-12-23T18:52:14.061Z,4.40
2017-12-23T19:00:16.048Z,4.20
2017-12-23T19:02:43.861Z,4.20
2017-12-23T19:05:11.786Z,4.20
2017-12-23T19:07:39.638Z,4.00
2017-12-23T19:10:07.490Z,3.80
2017-12-23T19:12:36.064Z,3.80
2017-12-23T19:15:03.860Z,3.80
2017-12-23T19:17:31.709Z,3.70
2017-12-23T19:20:00.304Z,3.60
2017-12-23T19:22:28.096Z,3.50
2017-12-23T19:24:55.889Z,3.40
2017-12-23T19:27:23.776Z,3.40
2017-12-23T19:29:52.537Z,3.10
2017-12-23T19:32:21.258Z,3.10
2017-12-23T19:34:49.895Z,2.80
2017-12-23T19:37:17.799Z,2.80
2017-12-23T19:39:46.494Z,2.40
2017-12-23T19:42:15.372Z,2.30
2017-12-23T19:44:43.375Z,2.30
2017-12-23T19:47:11.428Z,2.20
2017-12-23T19:49:40.082Z,2.00
2017-12-23T19:52:07.931Z,2.00
2017-12-23T19:54:35.802Z,2.00
2017-12-23T19:57:03.680Z,1.90
2017-12-23T19:59:31.554Z,2.10
2017-12-23T20:01:59.445Z,2.00
2017-12-23T20:04:28.109Z,1.80
2017-12-23T20:06:55.964Z,1.70
2017-12-23T20:09:23.796Z,1.70
2017-12-23T20:11:51.731Z,1.70
2017-12-23T20:14:20.399Z,2.10
2017-12-23T20:16:49.191Z,2.30
2017-12-23T20:19:17.077Z,2.30
2017-12-23T20:21:44.927Z,2.40
2017-12-23T20:24:13.441Z,2.30
2017-12-23T20:26:41.420Z,2.30
2017-12-23T20:29:09.364Z,2.40
2017-12-23T20:31:37.196Z,2.40
2017-12-23T20:34:05.114Z,2.50
2017-12-23T20:36:33.551Z,2.50
2017-12-23T20:39:01.610Z,2.40
2017-12-23T20:41:29.468Z,2.50
2017-12-23T20:43:57.434Z,2.50
2017-12-23T20:46:25.310Z,2.60
2017-12-23T20:48:53.171Z,2.60
2017-12-23T20:51:21.002Z,2.70
2017-12-23T20:53:48.929Z,2.70
2017-12-23T20:56:17.579Z,2.70
2017-12-23T20:58:45.636Z,2.70
2017-12-23T21:01:13.482Z,2.70
2017-12-23T21:03:41.312Z,2.60
2017-12-23T21:06:09.982Z,2.50
2017-12-23T21:08:37.866Z,2.50
2017-12-23T21:11:06.507Z,2.30
2017-12-23T21:13:34.462Z,2.30
2017-12-23T21:16:02.390Z,2.40
2017-12-23T21:18:31.665Z,2.60
2017-12-23T21:20:59.559Z,2.60
2017-12-23T21:23:28.200Z,2.70
2017-12-23T21:25:56.044Z,2.70
2017-12-23T21:28:23.860Z,2.70
2017-12-23T21:30:51.656Z,2.80
2017-12-23T21:33:19.475Z,2.90
2017-12-23T21:35:47.292Z,2.90
2017-12-23T21:38:15.155Z,3.00
2017-12-23T21:40:42.990Z,3.10
2017-12-23T21:43:10.795Z,3.10
2017-12-23T21:45:38.644Z,3.10
2017-12-23T21:48:06.507Z,3.30
2017-12-23T21:50:35.165Z,3.40
2017-12-23T21:53:02.994Z,3.40
2017-12-23T21:55:30.864Z,3.50
2017-12-23T21:57:58.720Z,3.50
2017-12-23T22:00:26.644Z,3.50
2017-12-23T22:02:55.212Z,3.50
2017-12-23T22:05:23.007Z,3.50
2017-12-23T22:07:51.589Z,3.60
2017-12-23T22:10:20.147Z,3.60
2017-12-23T22:12:47.947Z,3.70
2017-12-23T22:15:15.787Z,3.70
2017-12-23T22:17:44.469Z,3.60
2017-12-23T22:20:12.302Z,3.60
2017-12-23T22:22:40.071Z,3.70
2017-12-23T22:25:07.852Z,3.60
2017-12-23T22:27:35.699Z,3.60
2017-12-23T22:30:03.550Z,3.60
2017-12-23T22:32:31.437Z,3.60
2017-12-23T22:35:00.983Z,3.60
2017-12-23T22:37:30.018Z,3.60
2017-12-23T22:39:57.854Z,3.60
2017-12-23T22:42:34.378Z,3.60
2017-12-23T22:45:02.209Z,3.60
2017-12-23T22:47:30.438Z,3.70
2017-12-23T22:49:58.300Z,3.70
2017-12-23T22:52:26.078Z,3.70
2017-12-23T22:54:54.661Z,3.60
2017-12-23T22:57:23.224Z,3.60
2017-12-23T22:59:51.022Z,3.60
2017-12-23T23:02:19.610Z,3.60
2017-12-23T23:04:47.401Z,3.60
2017-12-23T23:07:15.166Z,3.60
2017-12-23T23:09:43.004Z,3.60
2017-12-23T23:12:10.768Z,3.60
2017-12-23T23:14:38.648Z,3.60
2017-12-23T23:17:06.411Z,3.60
2017-12-23T23:19:34.225Z,3.50
2017-12-23T23:22:02.611Z,3.60
2017-12-23T23:24:30.594Z,3.50
2017-12-23T23:26:59.250Z,3.50
2017-12-23T23:29:27.073Z,3.50
2017-12-23T23:31:55.030Z,3.40
2017-12-23T23:34:22.819Z,3.40
2017-12-23T23:36:50.752Z,3.30
2017-12-23T23:39:19.365Z,3.30
2017-12-23T23:41:47.259Z,3.30
2017-12-23T23:44:15.731Z,3.20
2017-12-23T23:46:43.556Z,3.20
2017-12-23T23:49:12.263Z,3.10
2017-12-23T23:51:40.069Z,3.10
2017-12-23T23:54:09.091Z,3.00
2017-12-23T23:56:36.953Z,3.00
2017-12-23T23:59:05.574Z,3.00
